createdAt,value
2019-04-30T00:00:30.430Z,95.50
2019-04-30T00:03:06.587Z,95.70
2019-04-30T00:05:35.275Z,95.30
2019-04-30T00:08:05.839Z,95.50
2019-04-30T00:10:39.567Z,95.40
2019-04-30T00:13:10.543Z,95.10
2019-04-30T00:15:37.957Z,95.30
2019-04-30T00:18:08.517Z,95.00
2019-04-30T00:20:38.725Z,95.50
2019-04-30T00:23:09.127Z,95.50
2019-04-30T00:25:38.544Z,95.60
2019-04-30T00:28:08.848Z,94.60
2019-04-30T00:30:43.894Z,95.20
2019-04-30T00:33:15.206Z,95.10
2019-04-30T00:35:45.369Z,94.60
2019-04-30T00:38:15.941Z,94.70
2019-04-30T00:40:45.174Z,94.20
2019-04-30T00:43:15.448Z,94.60
2019-04-30T00:46:05.026Z,94.20
2019-04-30T00:48:36.463Z,94.20
2019-04-30T00:51:07.573Z,94.90
2019-04-30T00:53:36.070Z,94.50
2019-04-30T00:56:05.682Z,94.30
2019-04-30T00:58:35.704Z,94.20
2019-04-30T01:01:25.624Z,94.00
2019-04-30T01:04:05.126Z,93.60
2019-04-30T01:06:35.684Z,94.20
2019-04-30T01:09:08.410Z,94.30
2019-04-30T01:11:35.587Z,94.10
2019-04-30T01:14:05.088Z,94.50
2019-04-30T01:16:34.125Z,93.90
2019-04-30T01:19:05.762Z,93.90
2019-04-30T01:21:33.751Z,93.90
2019-04-30T01:24:03.901Z,93.60
2019-04-30T01:26:32.712Z,94.10
2019-04-30T01:29:03.710Z,93.80
2019-04-30T01:31:37.391Z,93.50
2019-04-30T01:34:05.235Z,93.10
2019-04-30T01:36:33.805Z,93.10
2019-04-30T01:39:02.827Z,93.20
2019-04-30T01:41:31.761Z,93.30
2019-04-30T01:44:03.799Z,93.80
2019-04-30T01:46:33.923Z,93.50
2019-04-30T01:49:05.574Z,93.90
2019-04-30T01:51:34.490Z,94.30
2019-04-30T01:54:03.558Z,94.00
2019-04-30T01:56:40.303Z,94.30
2019-04-30T01:59:19.073Z,94.40
2019-04-30T02:01:49.984Z,95.20
2019-04-30T02:04:19.614Z,95.80
2019-04-30T02:06:49.334Z,95.90
2019-04-30T02:09:20.684Z,94.30
2019-04-30T02:11:49.572Z,92.50
2019-04-30T02:14:18.974Z,93.10
2019-04-30T02:16:49.837Z,93.30
2019-04-30T02:19:19.240Z,93.20
2019-04-30T02:21:48.662Z,93.50
2019-04-30T02:24:19.218Z,93.80
2019-04-30T02:26:48.508Z,93.50
2019-04-30T02:29:19.145Z,93.90
2019-04-30T02:31:51.280Z,93.90
2019-04-30T02:34:22.337Z,95.00
2019-04-30T02:36:52.852Z,94.90
2019-04-30T02:39:21.958Z,95.30
2019-04-30T02:41:52.883Z,95.40
2019-04-30T02:44:21.993Z,95.60
2019-04-30T02:46:51.069Z,95.70
2019-04-30T02:49:20.550Z,96.20
2019-04-30T02:51:50.239Z,96.30
2019-04-30T02:54:23.959Z,96.50
2019-04-30T02:56:54.669Z,96.60
2019-04-30T02:59:23.766Z,96.20
2019-04-30T03:01:53.461Z,96.20
2019-04-30T03:04:22.624Z,96.60
2019-04-30T03:06:52.163Z,96.90
2019-04-30T03:09:21.215Z,96.20
2019-04-30T03:11:51.451Z,96.80
2019-04-30T03:14:20.520Z,97.00
2019-04-30T03:17:00.384Z,96.70
2019-04-30T03:19:31.177Z,97.00
2019-04-30T03:22:20.248Z,96.20
2019-04-30T03:24:50.071Z,96.90
2019-04-30T03:27:21.090Z,97.20
2019-04-30T03:29:52.231Z,97.50
2019-04-30T03:32:22.659Z,98.00
2019-04-30T03:34:52.814Z,98.00
2019-04-30T03:37:22.789Z,98.40
2019-04-30T03:39:51.889Z,98.30
2019-04-30T03:42:20.841Z,98.40
2019-04-30T03:44:49.919Z,97.90
2019-04-30T03:47:20.200Z,98.20
2019-04-30T03:49:49.872Z,98.00
2019-04-30T03:52:19.664Z,97.70
2019-04-30T03:54:49.566Z,98.10
2019-04-30T03:57:20.943Z,98.10
2019-04-30T03:59:50.172Z,97.30
2019-04-30T04:02:36.661Z,98.00
2019-04-30T04:05:23.500Z,98.20
2019-04-30T04:08:04.372Z,98.40
2019-04-30T04:10:34.887Z,99.00
2019-04-30T04:13:03.653Z,99.00
2019-04-30T04:15:34.222Z,99.20
2019-04-30T04:18:04.612Z,99.00
2019-04-30T04:20:34.247Z,99.20
2019-04-30T04:23:03.075Z,98.20
2019-04-30T04:25:32.437Z,98.90
2019-04-30T04:28:01.477Z,98.10
2019-04-30T04:30:30.528Z,98.10
2019-04-30T04:32:59.880Z,98.10
2019-04-30T04:35:29.820Z,97.50
2019-04-30T04:38:00.407Z,97.60
2019-04-30T04:40:30.258Z,96.80
2019-04-30T04:43:00.344Z,97.00
2019-04-30T04:45:30.506Z,96.50
2019-04-30T04:48:29.975Z,96.40
2019-04-30T04:51:00.705Z,97.40
2019-04-30T04:53:30.429Z,96.70
2019-04-30T04:56:00.002Z,97.00
2019-04-30T04:58:30.633Z,96.90
2019-04-30T05:00:59.836Z,95.80
2019-04-30T05:03:30.302Z,95.60
2019-04-30T05:06:02.270Z,96.60
2019-04-30T05:08:31.346Z,95.50
2019-04-30T05:11:02.257Z,95.80
2019-04-30T05:13:34.642Z,96.10
2019-04-30T05:16:03.094Z,95.20
2019-04-30T05:18:32.055Z,94.40
2019-04-30T05:21:02.216Z,94.20
2019-04-30T05:23:31.199Z,93.40
2019-04-30T05:26:00.254Z,92.40
2019-04-30T05:28:30.157Z,92.10
2019-04-30T05:31:00.366Z,91.10
2019-04-30T05:33:29.929Z,87.60
2019-04-30T05:35:59.432Z,88.10
2019-04-30T05:38:34.741Z,88.70
2019-04-30T05:41:03.550Z,86.50
2019-04-30T05:43:32.437Z,83.30
2019-04-30T05:46:01.428Z,82.20
2019-04-30T05:48:30.851Z,83.10
2019-04-30T05:51:21.148Z,80.00
2019-04-30T05:53:50.307Z,80.20
2019-04-30T05:56:19.375Z,76.80
2019-04-30T05:58:49.430Z,76.50
2019-04-30T06:01:19.615Z,76.80
2019-04-30T06:03:49.196Z,75.60
2019-04-30T06:06:19.327Z,73.50
2019-04-30T06:08:50.296Z,72.10
2019-04-30T06:11:20.910Z,72.80
2019-04-30T06:13:54.254Z,72.00
2019-04-30T06:16:24.732Z,72.60
2019-04-30T06:18:53.680Z,73.00
2019-04-30T06:21:22.927Z,72.40
2019-04-30T06:23:51.970Z,72.50
2019-04-30T06:26:22.054Z,72.70
2019-04-30T06:28:51.007Z,70.10
2019-04-30T06:31:31.848Z,71.30
2019-04-30T06:33:51.188Z,69.80
2019-04-30T06:36:20.661Z,73.00
2019-04-30T06:38:49.606Z,69.80
2019-04-30T06:41:19.798Z,69.40
2019-04-30T06:43:52.071Z,68.00
2019-04-30T06:46:21.051Z,67.10
2019-04-30T06:48:51.015Z,69.70
2019-04-30T06:51:20.971Z,65.20
2019-04-30T06:53:51.394Z,67.00
2019-04-30T06:56:21.480Z,66.10
2019-04-30T06:58:52.678Z,64.60
2019-04-30T07:01:23.152Z,68.30
2019-04-30T07:03:53.388Z,65.20
2019-04-30T07:06:29.614Z,65.00
2019-04-30T07:08:59.653Z,65.90
2019-04-30T07:11:31.636Z,61.70
2019-04-30T07:14:00.518Z,63.80
2019-04-30T07:16:29.954Z,64.60
2019-04-30T07:18:59.110Z,59.70
2019-04-30T07:21:31.612Z,60.30
2019-04-30T07:24:02.239Z,61.10
2019-04-30T07:26:31.146Z,59.40
2019-04-30T07:29:02.517Z,59.30
2019-04-30T07:31:30.555Z,62.20
2019-04-30T07:33:59.657Z,62.80
2019-04-30T07:36:43.389Z,62.00
2019-04-30T07:38:59.862Z,61.10
2019-04-30T07:41:30.888Z,58.90
2019-04-30T07:44:02.288Z,58.80
2019-04-30T07:46:35.328Z,62.00
2019-04-30T07:49:02.252Z,58.40
2019-04-30T07:51:37.125Z,61.50
2019-04-30T07:54:01.784Z,59.30
2019-04-30T07:56:37.532Z,58.70
2019-04-30T07:59:02.905Z,60.20
2019-04-30T08:01:34.481Z,55.60
2019-04-30T08:04:05.013Z,56.90
2019-04-30T08:06:35.664Z,55.00
2019-04-30T08:09:10.127Z,53.30
2019-04-30T08:11:43.447Z,57.50
2019-04-30T08:14:11.391Z,55.60
2019-04-30T08:16:40.347Z,56.60
2019-04-30T08:19:09.252Z,52.30
2019-04-30T08:21:38.737Z,53.40
2019-04-30T08:24:29.082Z,52.40
2019-04-30T08:26:59.080Z,56.30
2019-04-30T08:29:29.468Z,56.10
2019-04-30T08:31:59.373Z,52.60
2019-04-30T08:34:29.845Z,52.50
2019-04-30T08:36:59.428Z,54.90
2019-04-30T08:39:29.453Z,53.50
2019-04-30T08:42:00.000Z,53.50
2019-04-30T08:44:29.718Z,52.00
2019-04-30T08:47:01.698Z,49.90
2019-04-30T08:49:31.113Z,49.70
2019-04-30T08:52:01.775Z,49.50
2019-04-30T08:54:30.890Z,51.20
2019-04-30T08:56:59.723Z,49.60
2019-04-30T08:59:29.420Z,52.00
2019-04-30T09:02:00.014Z,48.90
2019-04-30T09:04:29.845Z,49.00
2019-04-30T09:06:59.977Z,47.50
2019-04-30T09:09:29.583Z,49.30
2019-04-30T09:11:59.161Z,52.40
2019-04-30T09:14:30.791Z,47.40
2019-04-30T09:16:59.691Z,51.10
2019-04-30T09:19:30.133Z,50.90
2019-04-30T09:21:59.137Z,50.20
2019-04-30T09:24:30.708Z,47.10
2019-04-30T09:26:59.083Z,45.30
2019-04-30T09:29:29.315Z,46.20
2019-04-30T09:31:59.454Z,46.20
2019-04-30T09:34:29.067Z,51.30
2019-04-30T09:36:59.940Z,44.90
2019-04-30T09:39:29.754Z,44.50
2019-04-30T09:41:59.691Z,49.70
2019-04-30T09:44:30.887Z,45.10
2019-04-30T09:46:59.861Z,42.30
2019-04-30T09:49:30.281Z,48.70
2019-04-30T09:52:00.522Z,42.90
2019-04-30T09:54:29.939Z,42.50
2019-04-30T09:57:00.470Z,39.50
2019-04-30T09:59:29.330Z,39.10
2019-04-30T10:01:58.145Z,42.90
2019-04-30T10:04:27.834Z,44.10
2019-04-30T10:06:59.535Z,43.90
2019-04-30T10:09:30.952Z,40.50
2019-04-30T10:12:09.436Z,41.30
2019-04-30T10:14:40.802Z,37.90
2019-04-30T10:17:21.260Z,38.70
2019-04-30T10:19:51.457Z,35.70
2019-04-30T10:22:21.858Z,34.50
2019-04-30T10:24:51.466Z,39.10
2019-04-30T10:27:20.402Z,34.30
2019-04-30T10:29:49.437Z,32.40
2019-04-30T10:32:18.770Z,33.30
2019-04-30T10:34:47.885Z,31.20
2019-04-30T10:37:18.756Z,32.10
2019-04-30T10:39:48.989Z,31.20
2019-04-30T10:42:17.882Z,31.20
2019-04-30T10:44:46.877Z,28.80
2019-04-30T10:47:16.073Z,30.30
2019-04-30T10:49:45.131Z,29.80
2019-04-30T10:52:14.269Z,31.80
2019-04-30T10:54:43.206Z,28.90
2019-04-30T10:57:12.118Z,30.10
2019-04-30T10:59:41.034Z,28.90
2019-04-30T11:02:10.036Z,30.30
2019-04-30T11:04:39.654Z,30.20
2019-04-30T11:07:09.299Z,30.00
2019-04-30T11:09:39.503Z,27.70
2019-04-30T11:12:09.465Z,27.20
2019-04-30T11:14:38.616Z,23.70
2019-04-30T11:17:09.574Z,26.10
2019-04-30T11:19:39.093Z,24.20
2019-04-30T11:22:08.364Z,23.30
2019-04-30T11:24:53.419Z,24.40
2019-04-30T11:27:11.225Z,21.20
2019-04-30T11:29:40.023Z,20.60
2019-04-30T11:32:11.354Z,19.40
2019-04-30T11:34:40.613Z,21.40
2019-04-30T11:37:09.644Z,22.60
2019-04-30T11:39:39.229Z,24.00
2019-04-30T11:42:08.261Z,20.80
2019-04-30T11:44:38.699Z,25.20
2019-04-30T11:47:13.751Z,22.00
2019-04-30T11:49:42.784Z,20.80
2019-04-30T11:52:11.671Z,20.20
2019-04-30T11:54:51.583Z,19.00
2019-04-30T11:57:14.398Z,17.50
2019-04-30T11:59:45.058Z,18.50
2019-04-30T12:02:15.735Z,19.40
2019-04-30T12:04:45.127Z,21.00
2019-04-30T12:07:21.809Z,20.30
2019-04-30T12:10:04.781Z,18.40
2019-04-30T12:12:33.624Z,21.40
2019-04-30T12:15:02.896Z,24.40
2019-04-30T12:17:32.226Z,20.70
2019-04-30T12:20:01.267Z,20.10
2019-04-30T12:22:32.205Z,18.90
2019-04-30T12:25:03.233Z,19.90
2019-04-30T12:27:31.819Z,17.80
2019-04-30T12:30:02.019Z,18.10
2019-04-30T12:32:30.950Z,15.30
2019-04-30T12:35:01.203Z,17.60
2019-04-30T17:42:34.253Z,43.60
2019-04-30T17:45:02.703Z,41.60
2019-04-30T17:47:31.129Z,43.50
2019-04-30T17:49:59.609Z,44.40
2019-04-30T17:52:29.843Z,46.00
2019-04-30T17:54:59.488Z,43.50
2019-04-30T17:57:33.874Z,46.30
2019-04-30T17:59:59.290Z,47.10
2019-04-30T18:02:29.430Z,46.10
2019-04-30T18:04:57.810Z,49.10
2019-04-30T18:07:26.609Z,48.70
2019-04-30T18:09:55.128Z,50.30
2019-04-30T18:12:23.595Z,52.20
2019-04-30T18:14:52.121Z,51.20
2019-04-30T18:17:21.729Z,53.80
2019-04-30T18:19:54.577Z,52.40
2019-04-30T18:22:24.642Z,52.40
2019-04-30T18:24:59.176Z,53.30
2019-04-30T18:27:43.083Z,54.20
2019-04-30T18:30:02.626Z,56.00
2019-04-30T18:32:31.056Z,56.30
2019-04-30T18:34:59.502Z,56.80
2019-04-30T18:37:28.713Z,57.50
2019-04-30T18:40:00.024Z,59.30
2019-04-30T18:42:29.104Z,61.40
2019-04-30T18:44:57.459Z,62.50
2019-04-30T18:47:26.165Z,64.70
2019-04-30T18:49:54.596Z,65.60
2019-04-30T18:52:23.074Z,65.90
2019-04-30T18:54:51.572Z,67.80
2019-04-30T18:57:20.142Z,68.70
2019-04-30T18:59:48.529Z,69.60
2019-04-30T19:02:16.998Z,70.30
2019-04-30T19:04:45.440Z,71.20
2019-04-30T19:07:24.487Z,72.30
2019-04-30T19:10:00.633Z,71.70
2019-04-30T19:12:42.808Z,71.80
2019-04-30T19:15:41.304Z,71.40
2019-04-30T19:18:06.626Z,71.20
2019-04-30T19:20:38.469Z,73.20
2019-04-30T19:23:09.959Z,73.40
2019-04-30T19:25:38.641Z,73.80
2019-04-30T19:28:12.224Z,73.80
2019-04-30T19:30:38.893Z,74.20
2019-04-30T19:33:08.697Z,74.40
2019-04-30T19:35:37.291Z,75.30
2019-04-30T19:38:05.757Z,74.70
2019-04-30T19:40:34.577Z,76.00
2019-04-30T19:43:03.063Z,75.70
2019-04-30T19:45:31.469Z,74.30
2019-04-30T19:47:59.943Z,74.60
2019-04-30T19:50:28.386Z,75.70
2019-04-30T19:52:58.609Z,75.80
2019-04-30T19:55:28.611Z,75.90
2019-04-30T19:57:59.700Z,76.60
2019-04-30T20:00:29.113Z,78.30
2019-04-30T20:02:59.954Z,78.50
2019-04-30T20:05:28.655Z,79.30
2019-04-30T20:07:59.095Z,79.60
2019-04-30T20:10:28.763Z,77.40
2019-04-30T20:12:58.805Z,80.00
2019-04-30T20:15:29.643Z,79.30
2019-04-30T20:17:58.310Z,79.70
2019-04-30T20:20:30.640Z,80.40
2019-04-30T20:23:00.304Z,80.90
2019-04-30T20:25:29.149Z,80.80
2019-04-30T20:27:58.086Z,81.60
2019-04-30T20:30:29.162Z,81.60
2019-04-30T20:32:59.413Z,81.60
2019-04-30T20:35:28.456Z,82.10
2019-04-30T20:38:15.769Z,82.50
2019-04-30T20:40:57.814Z,81.80
2019-04-30T20:43:18.641Z,81.30
2019-04-30T20:45:47.478Z,81.50
2019-04-30T20:48:16.536Z,82.50
2019-04-30T20:50:47.552Z,82.50
2019-04-30T20:53:16.432Z,83.40
2019-04-30T20:55:45.269Z,83.90
2019-04-30T20:58:14.922Z,83.60
2019-04-30T21:00:44.375Z,83.90
2019-04-30T21:03:13.235Z,82.60
2019-04-30T21:05:41.901Z,83.30
2019-04-30T21:08:10.366Z,84.10
2019-04-30T21:10:39.687Z,83.90
2019-04-30T21:13:10.932Z,84.00
2019-04-30T21:15:39.536Z,85.60
2019-04-30T21:18:09.446Z,84.20
2019-04-30T21:20:38.799Z,84.30
2019-04-30T21:23:09.294Z,84.50
2019-04-30T21:25:38.694Z,86.50
2019-04-30T21:28:09.575Z,86.40
2019-04-30T21:30:37.350Z,85.30
2019-04-30T21:33:18.996Z,86.70
2019-04-30T21:35:58.655Z,86.60
2019-04-30T21:38:29.106Z,86.90
2019-04-30T21:41:00.898Z,86.80
2019-04-30T21:43:27.453Z,87.20
2019-04-30T21:45:55.937Z,86.60
2019-04-30T21:48:24.369Z,87.80
2019-04-30T21:50:52.816Z,87.60
2019-04-30T21:53:21.250Z,87.30
2019-04-30T21:55:49.822Z,87.20
2019-04-30T21:58:20.452Z,86.20
2019-04-30T22:00:54.355Z,85.90
2019-04-30T22:03:22.888Z,87.30
2019-04-30T22:05:51.366Z,88.00
2019-04-30T22:08:19.840Z,88.50
2019-04-30T22:10:48.294Z,88.80
2019-04-30T22:13:18.420Z,88.20
2019-04-30T22:15:47.982Z,89.30
2019-04-30T22:18:16.425Z,88.90
2019-04-30T22:20:44.890Z,89.40
2019-04-30T22:23:13.321Z,89.30
2019-04-30T22:25:41.777Z,87.90
2019-04-30T22:28:10.209Z,89.30
2019-04-30T22:30:38.664Z,89.60
2019-04-30T22:33:08.954Z,90.60
2019-04-30T22:35:55.125Z,91.00
2019-04-30T22:38:29.090Z,90.70
2019-04-30T22:40:58.835Z,90.50
2019-04-30T22:43:27.510Z,90.00
2019-04-30T22:45:59.457Z,89.60
2019-04-30T22:48:28.722Z,90.40
2019-04-30T22:50:57.278Z,90.40
2019-04-30T22:53:25.758Z,90.40
2019-04-30T22:55:54.192Z,90.60
2019-04-30T22:58:22.732Z,90.60
2019-04-30T23:00:52.827Z,90.20
2019-04-30T23:03:22.896Z,90.20
2019-04-30T23:05:51.371Z,90.80
2019-04-30T23:08:19.821Z,90.90
2019-04-30T23:10:48.358Z,91.40
2019-04-30T23:13:16.960Z,91.10
2019-04-30T23:15:45.406Z,91.40
2019-04-30T23:18:13.909Z,90.50
2019-04-30T23:20:42.357Z,90.60
2019-04-30T23:23:10.805Z,90.90
2019-04-30T23:25:39.245Z,91.60
2019-04-30T23:28:07.681Z,91.40
2019-04-30T23:30:36.120Z,91.40
2019-04-30T23:33:04.586Z,90.80
2019-04-30T23:35:33.021Z,91.20
2019-04-30T23:38:01.474Z,91.70
2019-04-30T23:40:33.206Z,90.80
2019-04-30T23:43:01.676Z,90.60
2019-04-30T23:45:30.101Z,91.30
2019-04-30T23:47:58.599Z,91.20
2019-04-30T23:50:27.133Z,91.90
2019-04-30T23:52:55.569Z,91.70
2019-04-30T23:55:24.024Z,91.10
2019-04-30T23:57:52.478Z,92.10
